Aérodrome :
LOGIN :

S'inscrire | Disclaimer

   EN    FR    IT 

 










Légende :    VFR   VFR Marginal   IFR   IFR Intensif   IFR Très Intensif
Visi : 
Plafond : 
>= 8 km
>= 3000ft
5 à 8 km
1000 à 3000 ft
1500m à 5 km
500 à 1000 ft
800 à 1500m
200 à 500 ft
< 800m
< 200 ft
Symboles :   Orages  Brouillard  Fortes neiges  Fortes précipitations  Vent > 20 kt
SIGMETs :   Divers  Orages  Givrage  Turbulence  Onde Orograph.  Cendres Volcan.







- Altitude de l'aérodrome : 580 ft
- Voir les cartes d'approche


LFOA - Avord

DERNIER METAR :
  • 240430Z AUTO 00000KT 0200 0150 R24/M0200N FG VV/// 01/01 Q1026

METARs EXPIRÉS :
  • 240400Z AUTO 29002KT 1600 0600 R24/1900U BCFG VV/// 02/02 Q1026
  • 240330Z AUTO 34001KT 2100 0800 R24/P2000 BCFG NSC 04/04 Q1026
  • 240300Z AUTO 34004KT 2900 BR NSC 04/04 Q1026
  • 240230Z AUTO 00000KT 1400 0350 R24/0450D BCFG NSC 05/04 Q1025
  • 240200Z AUTO 00000KT 3000 BR NSC 06/05 Q1025

Prévision TAF périmée.
Pas de NOTAMs connus pour ce terrain.



MET'MAP, la Météo Aéronautique d'un coup d'oeil ! - Copyright ORBIFLY Décembre 2007 - Disclaimer

ORBIFLY MET'MAP TEAM :

Programmation & Développement : Alexandra Zaïnal
Conception & Développement : Baudouin d'Aumeries
Co-Programmation & Développement : Marc-Olivier Méhu
Soutien technique & logistique : Manuel Goepfert

Contact : metmap@orbifly.com




SOURCES & CREDITS :

   NOAA